createdAt,value
2018-10-18T00:02:29.076Z,29.57
2018-10-18T00:06:02.325Z,29.03
2018-10-18T00:09:35.544Z,33.23
2018-10-18T00:13:08.795Z,31.60
2018-10-18T00:16:42.041Z,27.60
2018-10-18T00:20:16.251Z,31.57
2018-10-18T00:23:49.409Z,29.07
2018-10-18T00:27:22.621Z,31.77
2018-10-18T00:30:55.854Z,30.23
2018-10-18T00:34:29.084Z,30.67
2018-10-18T00:38:02.405Z,28.50
2018-10-18T00:41:35.557Z,28.53
2018-10-18T00:45:09.574Z,28.83
2018-10-18T00:48:42.808Z,29.57
2018-10-18T00:52:16.052Z,24.40
2018-10-18T00:55:49.273Z,26.83
2018-10-18T00:59:22.502Z,29.13
2018-10-18T01:02:55.735Z,27.90
2018-10-18T01:06:28.952Z,27.80
2018-10-18T01:10:02.232Z,25.53
2018-10-18T01:13:35.464Z,25.93
2018-10-18T01:17:08.687Z,23.87
2018-10-18T01:20:41.899Z,25.83
2018-10-18T01:24:15.170Z,26.73
2018-10-18T01:27:48.352Z,27.37
2018-10-18T01:31:21.576Z,27.07
2018-10-18T01:34:54.788Z,26.60
2018-10-18T01:38:28.032Z,26.23
2018-10-18T01:42:01.289Z,25.93
2018-10-18T01:45:34.491Z,28.20
2018-10-18T01:49:07.888Z,27.67
2018-10-18T01:52:41.123Z,27.50
2018-10-18T01:56:14.471Z,27.97
2018-10-18T01:59:47.592Z,26.43
2018-10-18T02:03:20.834Z,27.33
2018-10-18T02:06:54.049Z,29.40
2018-10-18T02:10:27.260Z,27.10
2018-10-18T02:14:00.488Z,27.60
2018-10-18T02:17:33.713Z,30.10
2018-10-18T02:21:07.273Z,29.23
2018-10-18T02:24:40.496Z,29.73
2018-10-18T02:28:13.728Z,28.70
2018-10-18T02:31:46.951Z,26.57
2018-10-18T02:35:20.177Z,29.10
2018-10-18T02:38:53.392Z,29.37
2018-10-18T02:42:26.626Z,26.20
2018-10-18T02:45:59.860Z,25.60
2018-10-18T02:49:33.090Z,25.03
2018-10-18T02:53:06.328Z,25.20
2018-10-18T02:56:39.561Z,26.60
2018-10-18T03:00:12.858Z,26.20
2018-10-18T03:03:46.060Z,29.30
2018-10-18T03:07:19.286Z,28.20
2018-10-18T03:10:52.512Z,28.30
2018-10-18T03:14:25.785Z,25.27
2018-10-18T03:17:59.007Z,26.10
2018-10-18T03:21:32.579Z,23.57
2018-10-18T03:25:07.077Z,25.23
2018-10-18T03:28:40.300Z,24.60
2018-10-18T03:32:13.537Z,26.47
2018-10-18T03:35:46.772Z,27.87
2018-10-18T03:39:20.003Z,24.90
2018-10-18T03:42:53.261Z,26.90
2018-10-18T03:46:26.488Z,29.00
2018-10-18T03:49:59.715Z,28.10
2018-10-18T03:53:32.945Z,28.17
2018-10-18T03:57:06.183Z,29.27
2018-10-18T04:00:39.413Z,29.43
2018-10-18T04:04:12.640Z,27.03
2018-10-18T04:07:45.908Z,29.40
2018-10-18T04:11:19.143Z,27.20
2018-10-18T04:14:52.386Z,27.17
2018-10-18T04:18:25.699Z,25.87
2018-10-18T04:21:58.847Z,27.17
2018-10-18T04:25:32.131Z,25.30
2018-10-18T04:29:05.332Z,30.20
2018-10-18T04:32:38.624Z,27.87
2018-10-18T04:36:11.897Z,29.13
2018-10-18T04:39:45.089Z,29.60
2018-10-18T04:43:18.559Z,29.27
2018-10-18T04:46:51.779Z,30.83
2018-10-18T04:50:25.029Z,27.83
2018-10-18T04:53:58.341Z,32.57
2018-10-18T04:57:31.680Z,28.20
2018-10-18T05:01:05.200Z,33.90
2018-10-18T05:04:38.789Z,31.13
2018-10-18T05:08:12.135Z,31.37
2018-10-18T05:11:45.369Z,30.60
2018-10-18T05:15:18.647Z,31.20
2018-10-18T05:18:51.921Z,30.37
2018-10-18T05:22:25.152Z,26.70
2018-10-18T05:25:58.381Z,31.43
2018-10-18T05:29:31.605Z,30.97
2018-10-18T05:33:05.090Z,36.00
2018-10-18T05:36:38.459Z,35.53
2018-10-18T05:40:11.818Z,34.67
2018-10-18T05:43:45.974Z,30.53
2018-10-18T05:47:19.461Z,28.83
2018-10-18T05:50:52.544Z,30.50
2018-10-18T05:54:25.771Z,34.43
2018-10-18T05:57:59.007Z,34.10
2018-10-18T06:01:32.557Z,34.13
2018-10-18T06:05:06.650Z,30.90
2018-10-18T06:08:40.536Z,33.07
2018-10-18T06:12:13.773Z,30.53
2018-10-18T06:15:46.999Z,31.97
2018-10-18T06:19:20.248Z,29.60
2018-10-18T06:22:53.488Z,28.40
2018-10-18T06:26:26.704Z,29.80
2018-10-18T06:29:59.928Z,29.20
2018-10-18T06:33:33.141Z,32.83
2018-10-18T06:37:06.416Z,29.93
2018-10-18T06:40:39.701Z,31.40
2018-10-18T06:44:12.930Z,28.77
2018-10-18T06:47:46.265Z,41.90
2018-10-18T06:51:19.391Z,28.50
2018-10-18T06:54:52.638Z,31.87
2018-10-18T06:58:25.843Z,33.57
2018-10-18T07:01:59.068Z,33.20
2018-10-18T07:05:32.302Z,35.37
2018-10-18T07:09:09.141Z,31.37
2018-10-18T07:12:42.760Z,31.60
2018-10-18T07:16:16.037Z,35.67
2018-10-18T07:19:49.380Z,37.20
2018-10-18T07:23:22.596Z,31.90
2018-10-18T07:26:56.286Z,32.83
2018-10-18T07:30:29.515Z,31.90
2018-10-18T07:34:02.728Z,33.30
2018-10-18T07:37:35.968Z,33.80
2018-10-18T07:41:09.208Z,39.60
2018-10-18T07:44:42.425Z,35.37
2018-10-18T07:48:15.748Z,36.87
2018-10-18T07:51:48.914Z,59.03
2018-10-18T07:55:22.133Z,38.63
2018-10-18T07:58:55.357Z,34.03
2018-10-18T08:02:28.647Z,39.27
2018-10-18T08:06:01.870Z,37.27
2018-10-18T08:09:35.100Z,39.03
2018-10-18T08:13:08.372Z,40.77
2018-10-18T08:16:41.589Z,37.47
2018-10-18T08:20:15.192Z,43.33
2018-10-18T08:23:48.395Z,47.87
2018-10-18T08:27:21.628Z,39.17
2018-10-18T08:30:55.124Z,41.03
2018-10-18T08:34:28.417Z,38.87
2018-10-18T08:38:01.786Z,36.83
2018-10-18T08:41:34.876Z,42.17
2018-10-18T08:45:09.107Z,43.63
2018-10-18T08:48:42.367Z,46.17
2018-10-18T08:52:15.643Z,44.17
2018-10-18T08:55:48.873Z,45.90
2018-10-18T08:59:22.159Z,45.50
2018-10-18T09:02:55.332Z,46.93
2018-10-18T09:06:28.552Z,48.67
2018-10-18T09:10:01.786Z,46.70
2018-10-18T09:13:35.015Z,45.47
2018-10-18T09:17:08.241Z,41.60
2018-10-18T09:20:41.471Z,41.13
2018-10-18T09:24:14.689Z,43.63
2018-10-18T09:27:47.911Z,39.97
2018-10-18T09:31:21.137Z,43.37
2018-10-18T09:34:54.359Z,45.97
2018-10-18T09:38:27.654Z,45.33
2018-10-18T09:42:00.824Z,43.93
2018-10-18T09:45:34.047Z,49.90
2018-10-18T09:49:07.369Z,49.73
2018-10-18T09:52:40.565Z,52.20
2018-10-18T09:56:13.851Z,55.30
2018-10-18T09:59:47.053Z,52.00
2018-10-18T10:03:20.740Z,52.67
2018-10-18T10:06:53.980Z,52.00
2018-10-18T10:10:27.196Z,48.97
2018-10-18T10:14:00.424Z,47.67
2018-10-18T10:17:33.725Z,45.83
2018-10-18T10:21:06.924Z,45.60
2018-10-18T10:24:40.180Z,46.57
2018-10-18T10:28:13.387Z,47.53
2018-10-18T10:31:46.613Z,51.17
2018-10-18T10:35:19.838Z,45.97
2018-10-18T10:38:53.133Z,46.30
2018-10-18T10:42:26.321Z,42.87
2018-10-18T10:45:59.536Z,43.23
2018-10-18T10:49:32.752Z,45.23
2018-10-18T10:53:06.088Z,40.50
2018-10-18T10:56:39.317Z,45.40
2018-10-18T11:00:12.609Z,46.80
2018-10-18T11:03:46.096Z,43.13
2018-10-18T11:07:19.353Z,44.03
2018-10-18T11:10:52.896Z,42.87
2018-10-18T11:14:26.117Z,42.47
2018-10-18T11:17:59.354Z,44.60
2018-10-18T11:21:32.640Z,45.30
2018-10-18T11:25:06.149Z,41.07
2018-10-18T11:28:39.378Z,41.50
2018-10-18T11:32:12.693Z,41.80
2018-10-18T11:35:45.872Z,37.67
2018-10-18T11:39:19.103Z,41.90
2018-10-18T11:42:52.361Z,40.63
2018-10-18T11:46:25.592Z,41.47
2018-10-18T11:49:58.803Z,40.33
2018-10-18T11:53:32.058Z,44.33
2018-10-18T11:57:05.469Z,40.63
2018-10-18T12:00:38.715Z,41.47
2018-10-18T12:04:11.920Z,42.93
2018-10-18T12:07:45.153Z,34.93
2018-10-18T12:11:18.386Z,39.10
2018-10-18T12:14:51.600Z,37.83
2018-10-18T12:18:24.833Z,36.90
2018-10-18T12:21:58.087Z,32.63
2018-10-18T12:25:31.300Z,33.20
2018-10-18T12:29:04.544Z,35.07
2018-10-18T12:32:38.116Z,34.93
2018-10-18T12:36:11.349Z,35.30
2018-10-18T12:39:44.767Z,32.87
2018-10-18T12:43:17.815Z,34.27
2018-10-18T12:46:51.039Z,33.17
2018-10-18T12:50:24.266Z,30.60
2018-10-18T12:53:57.476Z,37.53
2018-10-18T12:57:30.700Z,34.80
2018-10-18T13:01:03.947Z,34.20
2018-10-18T13:04:37.511Z,30.07
2018-10-18T13:08:10.804Z,31.90
2018-10-18T13:11:43.981Z,34.00
2018-10-18T13:15:17.208Z,31.43
2018-10-18T13:18:50.429Z,31.83
2018-10-18T13:22:23.659Z,34.17
2018-10-18T13:25:56.940Z,33.90
2018-10-18T13:29:30.129Z,32.57
2018-10-18T13:33:03.345Z,35.73
2018-10-18T13:36:36.572Z,34.87
2018-10-18T13:40:09.805Z,37.10
2018-10-18T13:43:43.019Z,38.40
2018-10-18T13:47:16.255Z,35.37
2018-10-18T13:50:49.489Z,35.43
2018-10-18T13:54:22.716Z,36.20
2018-10-18T13:57:56.307Z,35.03
2018-10-18T14:01:29.526Z,35.63
2018-10-18T14:05:02.824Z,36.43
2018-10-18T14:08:36.080Z,36.63
2018-10-18T14:12:09.228Z,41.93
2018-10-18T14:15:42.460Z,37.47
2018-10-18T14:19:15.702Z,39.13
2018-10-18T14:22:48.915Z,39.90
2018-10-18T14:26:22.265Z,37.60
2018-10-18T14:29:55.380Z,37.67
2018-10-18T14:33:28.600Z,36.13
2018-10-18T14:37:01.814Z,35.87
2018-10-18T14:40:35.052Z,35.57
2018-10-18T14:44:08.301Z,33.30
2018-10-18T14:47:41.619Z,36.60
2018-10-18T14:51:14.781Z,37.27
2018-10-18T14:54:48.007Z,35.00
2018-10-18T14:58:21.227Z,39.20
2018-10-18T15:01:54.466Z,39.70
2018-10-18T15:05:27.695Z,39.60
2018-10-18T15:09:00.951Z,37.80
2018-10-18T15:12:34.292Z,31.03
2018-10-18T15:16:07.416Z,29.33
2018-10-18T15:19:40.636Z,29.70
2018-10-18T15:23:13.939Z,28.00
2018-10-18T15:26:47.305Z,27.93
2018-10-18T15:30:20.365Z,28.33
2018-10-18T15:33:53.580Z,28.40
2018-10-18T15:37:26.792Z,29.07
2018-10-18T15:41:00.076Z,27.10
2018-10-18T15:44:33.346Z,26.50
2018-10-18T15:48:06.561Z,27.83
2018-10-18T15:51:39.798Z,26.07
2018-10-18T15:55:13.026Z,26.07
2018-10-18T15:58:46.252Z,26.80
2018-10-18T16:02:19.498Z,29.10
2018-10-18T16:05:52.728Z,27.93
2018-10-18T16:09:26.048Z,27.07
2018-10-18T16:12:59.357Z,28.27
2018-10-18T16:16:32.590Z,28.97
2018-10-18T16:20:07.335Z,27.60
2018-10-18T16:23:40.444Z,27.20
2018-10-18T16:27:13.668Z,28.10
2018-10-18T16:30:46.909Z,28.07
2018-10-18T16:34:20.123Z,28.93
2018-10-18T16:37:53.782Z,29.30
2018-10-18T16:41:27.245Z,29.40
2018-10-18T16:45:00.311Z,28.87
2018-10-18T16:48:33.536Z,27.43
2018-10-18T16:52:06.839Z,28.80
2018-10-18T16:55:40.017Z,28.57
2018-10-18T16:59:13.251Z,28.03
2018-10-18T17:02:46.473Z,27.93
2018-10-18T17:06:19.727Z,25.67
2018-10-18T17:09:52.995Z,27.10
2018-10-18T17:13:26.224Z,27.07
2018-10-18T17:16:59.527Z,27.10
2018-10-18T17:20:32.989Z,27.20
2018-10-18T17:24:06.261Z,27.40
2018-10-18T17:27:39.486Z,28.73
2018-10-18T17:31:12.692Z,29.10
2018-10-18T17:34:45.933Z,29.53
2018-10-18T17:38:19.269Z,32.60
2018-10-18T17:41:52.444Z,33.27
2018-10-18T17:45:25.691Z,29.97
2018-10-18T17:48:58.946Z,30.20
2018-10-18T17:52:32.358Z,31.40
2018-10-18T17:56:05.976Z,32.47
2018-10-18T17:59:39.213Z,32.40
2018-10-18T18:03:12.784Z,35.93
2018-10-18T18:06:46.053Z,34.27
2018-10-18T18:10:19.516Z,39.90
2018-10-18T18:13:52.779Z,36.37
2018-10-18T18:17:26.037Z,58.53
2018-10-18T18:20:59.265Z,34.73
2018-10-18T18:24:32.509Z,35.90
2018-10-18T18:28:05.749Z,38.00
2018-10-18T18:31:38.985Z,37.07
2018-10-18T18:35:12.237Z,41.63
2018-10-18T18:38:45.525Z,36.60
2018-10-18T18:42:18.762Z,52.20
2018-10-18T18:45:51.995Z,38.27
2018-10-18T18:49:25.223Z,38.73
2018-10-18T18:52:58.542Z,84.97
2018-10-18T18:56:31.723Z,51.83
2018-10-18T19:00:06.159Z,40.67
2018-10-18T19:03:39.355Z,47.53
2018-10-18T19:07:14.113Z,41.33
2018-10-18T19:10:47.631Z,38.70
2018-10-18T19:14:21.087Z,44.53
2018-10-18T19:17:54.396Z,37.10
2018-10-18T19:21:27.695Z,38.40
2018-10-18T19:25:00.929Z,40.27
2018-10-18T19:28:34.388Z,39.50
2018-10-18T19:32:07.661Z,40.33
2018-10-18T19:35:40.844Z,43.80
2018-10-18T19:39:14.080Z,42.30
2018-10-18T19:42:47.308Z,41.93
2018-10-18T19:46:20.691Z,42.13
2018-10-18T19:49:53.890Z,43.60
2018-10-18T19:53:27.177Z,48.17
2018-10-18T19:57:00.417Z,46.10
2018-10-18T20:00:33.664Z,41.90
2018-10-18T20:04:06.912Z,40.83
2018-10-18T20:07:40.191Z,38.37
2018-10-18T20:11:13.433Z,39.23
2018-10-18T20:14:46.680Z,34.90
2018-10-18T20:18:19.917Z,37.57
2018-10-18T20:21:53.179Z,37.67
2018-10-18T20:25:26.599Z,35.37
2018-10-18T20:28:59.729Z,38.20
2018-10-18T20:32:33.023Z,42.33
2018-10-18T20:36:06.245Z,39.20
2018-10-18T20:39:39.679Z,41.43
2018-10-18T20:43:12.832Z,42.00
2018-10-18T20:46:46.179Z,45.87
2018-10-18T20:50:19.387Z,53.37
2018-10-18T20:53:52.659Z,70.90
2018-10-18T20:57:26.009Z,55.87
2018-10-18T21:00:59.867Z,47.77
2018-10-18T21:04:33.125Z,48.20
2018-10-18T21:08:06.351Z,46.60
2018-10-18T21:11:39.997Z,49.30
2018-10-18T21:15:13.324Z,49.13
2018-10-18T21:18:46.497Z,52.30
2018-10-18T21:22:19.745Z,52.80
2018-10-18T21:25:52.996Z,53.33
2018-10-18T21:29:26.287Z,55.40
2018-10-18T21:32:59.657Z,53.57
2018-10-18T21:36:32.860Z,53.80
2018-10-18T21:40:06.125Z,49.10
2018-10-18T21:43:39.369Z,54.40
2018-10-18T21:47:12.772Z,54.10
2018-10-18T21:50:45.962Z,57.10
2018-10-18T21:54:19.289Z,58.43
2018-10-18T21:57:52.692Z,55.13
2018-10-18T22:01:25.908Z,49.93
2018-10-18T22:04:59.178Z,57.93
2018-10-18T22:08:32.414Z,56.30
2018-10-18T22:12:05.942Z,54.33
2018-10-18T22:15:39.179Z,58.13
2018-10-18T22:19:13.341Z,57.73
2018-10-18T22:22:46.568Z,53.60
2018-10-18T22:26:19.871Z,61.80
2018-10-18T22:29:53.108Z,70.17
2018-10-18T22:33:26.350Z,62.20
2018-10-18T22:36:59.589Z,67.67
2018-10-18T22:40:32.832Z,71.77
2018-10-18T22:44:06.516Z,63.67
2018-10-18T22:47:39.752Z,82.37
2018-10-18T22:51:12.997Z,80.43
2018-10-18T22:54:46.221Z,92.20
2018-10-18T22:58:19.472Z,75.20
2018-10-18T23:01:52.716Z,67.83
2018-10-18T23:05:25.928Z,73.43
2018-10-18T23:08:59.187Z,80.97
2018-10-18T23:12:32.431Z,86.53
2018-10-18T23:16:05.714Z,86.90
2018-10-18T23:19:38.936Z,83.87
2018-10-18T23:23:12.240Z,81.57
2018-10-18T23:26:45.436Z,85.23
2018-10-18T23:30:18.661Z,81.13
2018-10-18T23:33:51.937Z,77.97
2018-10-18T23:37:25.173Z,80.80
2018-10-18T23:40:58.421Z,77.37
2018-10-18T23:44:31.636Z,89.50
2018-10-18T23:48:05.184Z,91.33
2018-10-18T23:51:38.419Z,94.00
2018-10-18T23:55:11.644Z,84.47
2018-10-18T23:58:44.883Z,95.37
